sensor_id;sensor_type;location;lat;lon;timestamp;pressure;altitude;pressure_sealevel;temperature;humidity
56518;BME280;42419;48.760;2.322;2023-05-22T00:00:06;100894.41;;;20.17;44.73
56518;BME280;42419;48.760;2.322;2023-05-22T00:02:35;100897.09;;;20.17;44.83
56518;BME280;42419;48.760;2.322;2023-05-22T00:05:03;100894.53;;;20.14;44.72
56518;BME280;42419;48.760;2.322;2023-05-22T00:07:29;100899.88;;;20.14;44.67
56518;BME280;42419;48.760;2.322;2023-05-22T00:09:54;100897.25;;;20.13;44.61
56518;BME280;42419;48.760;2.322;2023-05-22T00:12:20;100890.28;;;20.09;44.65
56518;BME280;42419;48.760;2.322;2023-05-22T00:14:45;100896.38;;;20.12;44.65
56518;BME280;42419;48.760;2.322;2023-05-22T00:17:11;100876.34;;;20.01;44.61
56518;BME280;42419;48.760;2.322;2023-05-22T00:19:39;100898.22;;;20.12;44.65
56518;BME280;42419;48.760;2.322;2023-05-22T00:22:05;100893.72;;;20.12;44.61
56518;BME280;42419;48.760;2.322;2023-05-22T00:24:30;100877.97;;;20.05;44.46
56518;BME280;42419;48.760;2.322;2023-05-22T00:26:56;100890.22;;;20.10;44.47
56518;BME280;42419;48.760;2.322;2023-05-22T00:29:21;100899.13;;;20.11;44.41
56518;BME280;42419;48.760;2.322;2023-05-22T00:31:47;100894.72;;;20.10;44.38
56518;BME280;42419;48.760;2.322;2023-05-22T00:34:12;100886.81;;;20.07;44.27
56518;BME280;42419;48.760;2.322;2023-05-22T00:36:38;100889.66;;;20.02;44.43
56518;BME280;42419;48.760;2.322;2023-05-22T00:39:03;100899.22;;;20.08;44.38
56518;BME280;42419;48.760;2.322;2023-05-22T00:41:29;100901.91;;;20.08;44.24
56518;BME280;42419;48.760;2.322;2023-05-22T00:43:58;100873.97;;;19.93;44.01
56518;BME280;42419;48.760;2.322;2023-05-22T00:46:23;100889.53;;;20.05;44.18
56518;BME280;42419;48.760;2.322;2023-05-22T00:48:48;100889.53;;;20.05;44.21
56518;BME280;42419;48.760;2.322;2023-05-22T00:51:14;100882.59;;;20.00;44.28
56518;BME280;42419;48.760;2.322;2023-05-22T00:53:40;100876.34;;;20.01;44.12
56518;BME280;42419;48.760;2.322;2023-05-22T00:56:05;100886.06;;;20.03;44.11
56518;BME280;42419;48.760;2.322;2023-05-22T00:58:31;100882.44;;;20.04;44.20
56518;BME280;42419;48.760;2.322;2023-05-22T01:00:56;100876.28;;;20.02;44.11
56518;BME280;42419;48.760;2.322;2023-05-22T01:03:23;100884.31;;;20.02;44.09
56518;BME280;42419;48.760;2.322;2023-05-22T01:05:51;100880.75;;;20.02;44.03
56518;BME280;42419;48.760;2.322;2023-05-22T01:08:17;100875.47;;;20.00;44.05
56518;BME280;42419;48.760;2.322;2023-05-22T01:10:42;100804.75;;;19.61;44.11
56518;BME280;42419;48.760;2.322;2023-05-22T01:13:30;100871.91;;;20.00;44.00
56518;BME280;42419;48.760;2.322;2023-05-22T01:18:46;100879.13;;;19.98;44.04
56518;BME280;42419;48.760;2.322;2023-05-22T01:21:28;100879.13;;;19.98;43.97
56518;BME280;42419;48.760;2.322;2023-05-22T01:29:27;100885.44;;;19.95;44.17
56518;BME280;42419;48.760;2.322;2023-05-22T01:31:56;100881.06;;;19.94;43.97
56518;BME280;42419;48.760;2.322;2023-05-22T01:34:24;100877.50;;;19.94;44.07
56518;BME280;42419;48.760;2.322;2023-05-22T01:36:51;100860.00;;;19.85;44.02
56518;BME280;42419;48.760;2.322;2023-05-22T01:39:18;100872.25;;;19.91;44.03
56518;BME280;42419;48.760;2.322;2023-05-22T01:41:47;100847.75;;;19.80;44.02
56518;BME280;42419;48.760;2.322;2023-05-22T01:44:12;100871.31;;;19.92;43.79
56518;BME280;42419;48.760;2.322;2023-05-22T01:46:38;100866.91;;;19.91;43.81
56518;BME280;42419;48.760;2.322;2023-05-22T01:49:03;100875.81;;;19.91;43.89
56518;BME280;42419;48.760;2.322;2023-05-22T01:51:38;100867.84;;;19.90;43.54
56518;BME280;42419;48.760;2.322;2023-05-22T01:54:59;100867.91;;;19.88;43.59
56518;BME280;42419;48.760;2.322;2023-05-22T01:57:17;100879.50;;;19.87;43.84
56518;BME280;42419;48.760;2.322;2023-05-22T01:59:48;100870.63;;;19.87;43.74
56518;BME280;42419;48.760;2.322;2023-05-22T02:02:17;100883.09;;;19.86;43.61
56518;BME280;42419;48.760;2.322;2023-05-22T02:04:51;100877.84;;;19.85;43.44
56518;BME280;42419;48.760;2.322;2023-05-22T02:07:21;100872.50;;;19.85;43.51
56518;BME280;42419;48.760;2.322;2023-05-22T02:09:49;100867.19;;;19.83;43.48
56518;BME280;42419;48.760;2.322;2023-05-22T02:12:16;100874.28;;;19.84;43.44
56518;BME280;42419;48.760;2.322;2023-05-22T02:14:41;100871.63;;;19.84;43.31
56518;BME280;42419;48.760;2.322;2023-05-22T02:17:07;100872.59;;;19.82;43.27
56518;BME280;42419;48.760;2.322;2023-05-22T02:19:34;100877.00;;;19.83;43.21
56518;BME280;42419;48.760;2.322;2023-05-22T02:22:00;100871.72;;;19.81;43.15
56518;BME280;42419;48.760;2.322;2023-05-22T02:24:25;100870.91;;;19.79;42.90
56518;BME280;42419;48.760;2.322;2023-05-22T02:26:50;100873.53;;;19.81;43.29
56518;BME280;42419;48.760;2.322;2023-05-22T02:29:16;100871.78;;;19.80;43.26
56518;BME280;42419;48.760;2.322;2023-05-22T02:31:41;100867.31;;;19.80;43.24
56518;BME280;42419;48.760;2.322;2023-05-22T02:34:06;100857.84;;;19.71;42.99
56518;BME280;42419;48.760;2.322;2023-05-22T02:36:32;100815.03;;;19.48;43.26
56518;BME280;42419;48.760;2.322;2023-05-22T02:39:00;100870.03;;;19.79;43.21
56518;BME280;42419;48.760;2.322;2023-05-22T02:41:27;100870.06;;;19.77;43.23
56518;BME280;42419;48.760;2.322;2023-05-22T02:43:52;100852.63;;;19.67;43.22
56518;BME280;42419;48.760;2.322;2023-05-22T02:46:17;100858.78;;;19.69;43.25
56518;BME280;42419;48.760;2.322;2023-05-22T02:48:43;100866.59;;;19.75;42.96
56518;BME280;42419;48.760;2.322;2023-05-22T02:51:09;100870.16;;;19.75;43.03
56518;BME280;42419;48.760;2.322;2023-05-22T02:53:34;100872.81;;;19.75;43.15
56518;BME280;42419;48.760;2.322;2023-05-22T02:56:06;100866.59;;;19.75;42.95
56518;BME280;42419;48.760;2.322;2023-05-22T02:58:32;100868.41;;;19.74;42.89
56518;BME280;42419;48.760;2.322;2023-05-22T03:00:57;100866.59;;;19.75;43.09
56518;BME280;42419;48.760;2.322;2023-05-22T03:03:22;100849.97;;;19.67;42.94
56518;BME280;42419;48.760;2.322;2023-05-22T03:05:49;100859.50;;;19.74;42.91
56518;BME280;42419;48.760;2.322;2023-05-22T03:08:18;100842.09;;;19.62;42.97
56518;BME280;42419;48.760;2.322;2023-05-22T03:10:43;100864.06;;;19.72;42.90
56518;BME280;42419;48.760;2.322;2023-05-22T03:13:09;100863.19;;;19.71;42.88
56518;BME280;42419;48.760;2.322;2023-05-22T03:15:34;100874.75;;;19.72;42.81
56518;BME280;42419;48.760;2.322;2023-05-22T03:17:59;100862.34;;;19.69;42.91
56518;BME280;42419;48.760;2.322;2023-05-22T03:20:25;100871.25;;;19.70;42.77
56518;BME280;42419;48.760;2.322;2023-05-22T03:22:50;100866.91;;;19.66;42.73
56518;BME280;42419;48.760;2.322;2023-05-22T03:25:15;100851.91;;;19.62;42.64
56518;BME280;42419;48.760;2.322;2023-05-22T03:27:41;100868.56;;;19.68;42.72
56518;BME280;42419;48.760;2.322;2023-05-22T03:30:06;100867.69;;;19.68;42.62
56518;BME280;42419;48.760;2.322;2023-05-22T03:32:32;100857.97;;;19.67;42.83
56518;BME280;42419;48.760;2.322;2023-05-22T03:35:01;100784.78;;;19.23;42.60
56518;BME280;42419;48.760;2.322;2023-05-22T03:37:27;100856.22;;;19.66;42.97
56518;BME280;42419;48.760;2.322;2023-05-22T03:39:52;100863.34;;;19.65;42.68
56518;BME280;42419;48.760;2.322;2023-05-22T03:42:17;100862.47;;;19.65;42.53
56518;BME280;42419;48.760;2.322;2023-05-22T03:44:43;100854.47;;;19.65;42.72
56518;BME280;42419;48.760;2.322;2023-05-22T03:47:08;100842.28;;;19.58;42.53
56518;BME280;42419;48.760;2.322;2023-05-22T03:49:33;100847.78;;;19.53;42.80
56518;BME280;42419;48.760;2.322;2023-05-22T03:51:59;100866.06;;;19.64;42.42
56518;BME280;42419;48.760;2.322;2023-05-22T03:54:24;100873.28;;;19.62;42.62
56518;BME280;42419;48.760;2.322;2023-05-22T03:56:50;100879.50;;;19.62;42.59
56518;BME280;42419;48.760;2.322;2023-05-22T03:59:15;100881.38;;;19.59;42.44
56518;BME280;42419;48.760;2.322;2023-05-22T04:01:40;100882.22;;;19.61;42.58
56518;BME280;42419;48.760;2.322;2023-05-22T04:04:06;100892.91;;;19.61;42.57
56518;BME280;42419;48.760;2.322;2023-05-22T04:06:31;100880.63;;;19.55;42.38
56518;BME280;42419;48.760;2.322;2023-05-22T04:09:08;100885.03;;;19.56;42.82
56518;BME280;42419;48.760;2.322;2023-05-22T04:11:34;100871.97;;;19.49;42.50
56518;BME280;42419;48.760;2.322;2023-05-22T04:14:02;100885.03;;;19.56;42.58
56518;BME280;42419;48.760;2.322;2023-05-22T04:16:27;100893.00;;;19.58;42.53
56518;BME280;42419;48.760;2.322;2023-05-22T04:18:52;100872.84;;;19.49;42.37
56518;BME280;42419;48.760;2.322;2023-05-22T04:21:18;100890.34;;;19.58;43.01
56518;BME280;42419;48.760;2.322;2023-05-22T04:23:43;100880.78;;;19.51;42.51
56518;BME280;42419;48.760;2.322;2023-05-22T04:26:09;100876.56;;;19.45;42.60
56518;BME280;42419;48.760;2.322;2023-05-22T04:28:34;100893.06;;;19.56;42.55
56518;BME280;42419;48.760;2.322;2023-05-22T04:31:00;100886.97;;;19.53;42.37
56518;BME280;42419;48.760;2.322;2023-05-22T04:33:26;100901.13;;;19.55;42.65
56518;BME280;42419;48.760;2.322;2023-05-22T04:35:52;100899.31;;;19.55;42.33
56518;BME280;42419;48.760;2.322;2023-05-22T04:38:18;100873.31;;;19.36;42.41
56518;BME280;42419;48.760;2.322;2023-05-22T04:40:43;100898.44;;;19.55;41.96
56518;BME280;42419;48.760;2.322;2023-05-22T04:43:09;100899.31;;;19.55;42.44
56518;BME280;42419;48.760;2.322;2023-05-22T04:45:37;100909.13;;;19.55;42.55
56518;BME280;42419;48.760;2.322;2023-05-22T04:48:03;100903.78;;;19.55;42.39
56518;BME280;42419;48.760;2.322;2023-05-22T04:50:29;100913.59;;;19.54;42.52
56518;BME280;42419;48.760;2.322;2023-05-22T04:52:56;100906.69;;;19.49;42.57
56518;BME280;42419;48.760;2.322;2023-05-22T04:55:23;100913.59;;;19.54;42.59
56518;BME280;42419;48.760;2.322;2023-05-22T04:57:48;100913.50;;;19.57;42.75
56518;BME280;42419;48.760;2.322;2023-05-22T05:00:14;100885.53;;;19.43;42.84
56518;BME280;42419;48.760;2.322;2023-05-22T05:02:41;100907.28;;;19.57;43.20
56518;BME280;42419;48.760;2.322;2023-05-22T05:05:06;100908.88;;;19.62;43.22
56518;BME280;42419;48.760;2.322;2023-05-22T05:07:35;100915.78;;;19.68;43.21
56518;BME280;42419;48.760;2.322;2023-05-22T05:10:01;100910.38;;;19.71;43.32
56518;BME280;42419;48.760;2.322;2023-05-22T05:12:26;100904.94;;;19.74;43.66
56518;BME280;42419;48.760;2.322;2023-05-22T05:14:52;100905.69;;;19.77;43.93
56518;BME280;42419;48.760;2.322;2023-05-22T05:17:17;100896.75;;;19.79;44.47
56518;BME280;42419;48.760;2.322;2023-05-22T05:19:42;100884.38;;;19.76;44.69
56518;BME280;42419;48.760;2.322;2023-05-22T05:22:07;100892.06;;;19.85;44.73
56518;BME280;42419;48.760;2.322;2023-05-22T05:24:33;100898.09;;;19.90;45.11
56518;BME280;42419;48.760;2.322;2023-05-22T05:26:58;100898.94;;;19.92;45.84
56518;BME280;42419;48.760;2.322;2023-05-22T05:29:23;100906.81;;;19.95;45.13
56518;BME280;42419;48.760;2.322;2023-05-22T05:31:49;100892.75;;;19.90;45.13
56518;BME280;42419;48.760;2.322;2023-05-22T05:34:14;100899.63;;;19.97;45.11
56518;BME280;42419;48.760;2.322;2023-05-22T05:36:40;100903.09;;;19.99;44.97
56518;BME280;42419;48.760;2.322;2023-05-22T05:39:05;100906.63;;;20.01;44.94
56518;BME280;42419;48.760;2.322;2023-05-22T05:41:31;100900.34;;;20.02;44.80
56518;BME280;42419;48.760;2.322;2023-05-22T05:43:56;100884.66;;;19.93;44.89
56518;BME280;42419;48.760;2.322;2023-05-22T05:46:24;100894.91;;;20.04;44.96
56518;BME280;42419;48.760;2.322;2023-05-22T05:48:49;100899.34;;;20.05;44.90
56518;BME280;42419;48.760;2.322;2023-05-22T05:51:15;100893.97;;;20.06;45.00
56518;BME280;42419;48.760;2.322;2023-05-22T05:53:40;100900.09;;;20.08;44.94
56518;BME280;42419;48.760;2.322;2023-05-22T05:56:06;100902.78;;;20.08;44.86
56518;BME280;42419;48.760;2.322;2023-05-22T05:58:32;100891.13;;;20.11;44.97
56518;BME280;42419;48.760;2.322;2023-05-22T06:00:57;100896.47;;;20.11;44.86
56518;BME280;42419;48.760;2.322;2023-05-22T06:03:22;100892.06;;;20.08;44.86
56518;BME280;42419;48.760;2.322;2023-05-22T06:05:50;100892.88;;;20.12;44.75
56518;BME280;42419;48.760;2.322;2023-05-22T06:08:15;100860.50;;;19.95;44.55
56518;BME280;42419;48.760;2.322;2023-05-22T06:10:40;100904.34;;;20.14;44.86
56518;BME280;42419;48.760;2.322;2023-05-22T06:13:06;100895.41;;;20.15;45.05
56518;BME280;42419;48.760;2.322;2023-05-22T06:15:31;100888.34;;;20.12;45.11
56518;BME280;42419;48.760;2.322;2023-05-22T06:17:56;100897.03;;;20.19;45.12
56518;BME280;42419;48.760;2.322;2023-05-22T06:20:22;100896.03;;;20.21;44.87
56518;BME280;42419;48.760;2.322;2023-05-22T06:22:49;100900.47;;;20.23;45.03
56518;BME280;42419;48.760;2.322;2023-05-22T06:25:15;100903.97;;;20.25;44.79
56518;BME280;42419;48.760;2.322;2023-05-22T06:27:40;100893.31;;;20.23;44.91
56518;BME280;42419;48.760;2.322;2023-05-22T06:30:07;100902.97;;;20.27;44.91
56518;BME280;42419;48.760;2.322;2023-05-22T06:32:32;100904.75;;;20.27;44.79
56518;BME280;42419;48.760;2.322;2023-05-22T06:34:58;100904.66;;;20.30;44.69
56518;BME280;42419;48.760;2.322;2023-05-22T06:37:23;100909.06;;;20.31;44.74
56518;BME280;42419;48.760;2.322;2023-05-22T06:39:48;100903.72;;;20.31;44.67
56518;BME280;42419;48.760;2.322;2023-05-22T06:42:13;100901.00;;;20.32;44.60
56518;BME280;42419;48.760;2.322;2023-05-22T06:44:39;100908.09;;;20.33;44.66
56518;BME280;42419;48.760;2.322;2023-05-22T06:47:04;100917.00;;;20.34;44.51
56518;BME280;42419;48.760;2.322;2023-05-22T06:49:30;100917.00;;;20.34;44.57
56518;BME280;42419;48.760;2.322;2023-05-22T06:51:55;100927.56;;;20.37;44.55
56518;BME280;42419;48.760;2.322;2023-05-22T06:54:21;100921.63;;;20.29;44.64
56518;BME280;42419;48.760;2.322;2023-05-22T06:56:46;100935.53;;;20.38;44.59
56518;BME280;42419;48.760;2.322;2023-05-22T06:59:11;100928.59;;;20.33;44.55
56518;BME280;42419;48.760;2.322;2023-05-22T07:01:37;100935.47;;;20.40;44.29
56518;BME280;42419;48.760;2.322;2023-05-22T07:04:03;100928.38;;;20.39;44.27
56518;BME280;42419;48.760;2.322;2023-05-22T07:06:32;100923.03;;;20.39;44.53
56518;BME280;42419;48.760;2.322;2023-05-22T07:09:03;100911.69;;;20.32;44.40
56518;BME280;42419;48.760;2.322;2023-05-22T07:11:29;100919.53;;;20.37;44.47
56518;BME280;42419;48.760;2.322;2023-05-22T07:13:54;100930.78;;;20.46;44.25
56518;BME280;42419;48.760;2.322;2023-05-22T07:16:21;100894.03;;;20.28;44.22
56518;BME280;42419;48.760;2.322;2023-05-22T07:18:46;100936.03;;;20.49;44.34
56518;BME280;42419;48.760;2.322;2023-05-22T07:21:11;100930.66;;;20.49;44.21
56518;BME280;42419;48.760;2.322;2023-05-22T07:23:37;100918.50;;;20.41;44.25
56518;BME280;42419;48.760;2.322;2023-05-22T07:26:02;100940.41;;;20.52;44.18
56518;BME280;42419;48.760;2.322;2023-05-22T07:28:29;100943.06;;;20.52;44.00
56518;BME280;42419;48.760;2.322;2023-05-22T07:30:54;100947.41;;;20.54;44.07
56518;BME280;42419;48.760;2.322;2023-05-22T07:33:20;100929.88;;;20.47;43.94
56518;BME280;42419;48.760;2.322;2023-05-22T07:35:46;100949.97;;;20.57;44.04
56518;BME280;42419;48.760;2.322;2023-05-22T07:38:11;100950.78;;;20.59;43.70
56518;BME280;42419;48.760;2.322;2023-05-22T07:40:36;100946.31;;;20.60;43.89
56518;BME280;42419;48.760;2.322;2023-05-22T07:43:02;100945.44;;;20.59;43.84
56518;BME280;42419;48.760;2.322;2023-05-22T07:45:27;100922.72;;;20.48;43.79
56518;BME280;42419;48.760;2.322;2023-05-22T07:47:52;100949.75;;;20.63;43.87
56518;BME280;42419;48.760;2.322;2023-05-22T07:50:18;100954.16;;;20.64;43.73
56518;BME280;42419;48.760;2.322;2023-05-22T07:52:43;100951.41;;;20.66;43.61
56518;BME280;42419;48.760;2.322;2023-05-22T07:55:08;100937.47;;;20.58;43.73
56518;BME280;42419;48.760;2.322;2023-05-22T07:57:34;100953.28;;;20.64;43.76
56518;BME280;42419;48.760;2.322;2023-05-22T08:00:01;100961.09;;;20.70;43.49
56518;BME280;42419;48.760;2.322;2023-05-22T08:02:34;100961.16;;;20.69;43.55
56518;BME280;42419;48.760;2.322;2023-05-22T08:04:59;100955.84;;;20.67;43.56
56518;BME280;42419;48.760;2.322;2023-05-22T08:07:25;100942.72;;;20.61;43.55
56518;BME280;42419;48.760;2.322;2023-05-22T08:09:50;100965.31;;;20.76;43.64
56518;BME280;42419;48.760;2.322;2023-05-22T08:12:15;100961.75;;;20.75;43.40
56518;BME280;42419;48.760;2.322;2023-05-22T08:14:41;100964.44;;;20.75;43.52
56518;BME280;42419;48.760;2.322;2023-05-22T08:17:06;100966.94;;;20.80;43.47
56518;BME280;42419;48.760;2.322;2023-05-22T08:19:31;100957.38;;;20.74;43.36
56518;BME280;42419;48.760;2.322;2023-05-22T08:21:57;100970.41;;;20.83;43.27
56518;BME280;42419;48.760;2.322;2023-05-22T08:24:23;100967.63;;;20.85;43.24
56518;BME280;42419;48.760;2.322;2023-05-22T08:26:53;100975.63;;;20.86;43.31
56518;BME280;42419;48.760;2.322;2023-05-22T08:29:19;100969.63;;;20.80;43.12
56518;BME280;42419;48.760;2.322;2023-05-22T08:31:44;100971.06;;;20.88;43.13
56518;BME280;42419;48.760;2.322;2023-05-22T08:34:10;100976.34;;;20.90;43.28
56518;BME280;42419;48.760;2.322;2023-05-22T08:36:35;100971.88;;;20.90;43.07
56518;BME280;42419;48.760;2.322;2023-05-22T08:39:00;100970.97;;;20.91;43.21
56518;BME280;42419;48.760;2.322;2023-05-22T08:41:27;100970.03;;;20.92;43.11
56518;BME280;42419;48.760;2.322;2023-05-22T08:43:52;100925.44;;;20.70;42.99
56518;BME280;42419;48.760;2.322;2023-05-22T08:46:18;100968.09;;;20.96;42.98
56518;BME280;42419;48.760;2.322;2023-05-22T08:48:46;100967.19;;;20.97;42.89
56518;BME280;42419;48.760;2.322;2023-05-22T08:51:14;100960.31;;;20.90;42.58
56518;BME280;42419;48.760;2.322;2023-05-22T08:53:42;100978.63;;;21.00;42.61
56518;BME280;42419;48.760;2.322;2023-05-22T08:56:08;100979.41;;;21.02;42.79
56518;BME280;42419;48.760;2.322;2023-05-22T08:58:35;100970.66;;;20.99;42.59
56518;BME280;42419;48.760;2.322;2023-05-22T09:01:02;100976.66;;;21.05;42.81
56518;BME280;42419;48.760;2.322;2023-05-22T09:03:29;100982.88;;;21.06;42.73
56518;BME280;42419;48.760;2.322;2023-05-22T09:05:58;100960.94;;;20.96;42.65
56518;BME280;42419;48.760;2.322;2023-05-22T09:08:27;100990.78;;;21.09;42.69
56518;BME280;42419;48.760;2.322;2023-05-22T09:10:53;100988.97;;;21.09;42.70
56518;BME280;42419;48.760;2.322;2023-05-22T09:13:29;100996.00;;;21.12;42.54
56518;BME280;42419;48.760;2.322;2023-05-22T09:16:07;100979.31;;;21.05;42.58
56518;BME280;42419;48.760;2.322;2023-05-22T09:18:37;100982.88;;;21.06;42.44
56518;BME280;42419;48.760;2.322;2023-05-22T09:21:04;100996.78;;;21.16;42.57
56518;BME280;42419;48.760;2.322;2023-05-22T09:23:30;101002.06;;;21.17;42.48
56518;BME280;42419;48.760;2.322;2023-05-22T09:25:57;100995.84;;;21.17;42.48
56518;BME280;42419;48.760;2.322;2023-05-22T09:28:23;101002.91;;;21.19;42.44
56518;BME280;42419;48.760;2.322;2023-05-22T09:30:50;101004.63;;;21.20;42.47
56518;BME280;42419;48.760;2.322;2023-05-22T09:33:16;101001.06;;;21.20;42.30
56518;BME280;42419;48.760;2.322;2023-05-22T09:35:41;101001.91;;;21.22;42.45
56518;BME280;42419;48.760;2.322;2023-05-22T09:38:09;100972.16;;;21.06;42.25
56518;BME280;42419;48.760;2.322;2023-05-22T09:40:36;100988.56;;;21.20;42.49
56518;BME280;42419;48.760;2.322;2023-05-22T09:43:11;100994.69;;;21.24;42.34
56518;BME280;42419;48.760;2.322;2023-05-22T09:45:37;100988.38;;;21.25;42.41
56518;BME280;42419;48.760;2.322;2023-05-22T09:48:03;100988.47;;;21.23;42.42
56518;BME280;42419;48.760;2.322;2023-05-22T09:50:29;100982.91;;;21.28;42.29
56518;BME280;42419;48.760;2.322;2023-05-22T09:52:55;100974.28;;;21.20;42.32
56518;BME280;42419;48.760;2.322;2023-05-22T09:55:21;100983.66;;;21.31;42.31
56518;BME280;42419;48.760;2.322;2023-05-22T09:57:50;100965.22;;;21.24;42.00
56518;BME280;42419;48.760;2.322;2023-05-22T10:00:16;100973.72;;;21.33;42.33
56518;BME280;42419;48.760;2.322;2023-05-22T10:02:48;100968.47;;;21.32;42.23
56518;BME280;42419;48.760;2.322;2023-05-22T10:05:14;100943.91;;;21.21;42.12
56518;BME280;42419;48.760;2.322;2023-05-22T10:07:48;100942.97;;;21.22;42.35
56518;BME280;42419;48.760;2.322;2023-05-22T10:10:16;100962.09;;;21.34;42.17
56518;BME280;42419;48.760;2.322;2023-05-22T10:12:45;100967.31;;;21.37;42.35
56518;BME280;42419;48.760;2.322;2023-05-22T10:15:12;100896.63;;;20.98;42.21
56518;BME280;42419;48.760;2.322;2023-05-22T10:17:38;100965.47;;;21.39;42.08
56518;BME280;42419;48.760;2.322;2023-05-22T10:20:05;100967.22;;;21.40;42.29
56518;BME280;42419;48.760;2.322;2023-05-22T10:22:34;100963.59;;;21.41;42.23
56518;BME280;42419;48.760;2.322;2023-05-22T10:25:01;100970.69;;;21.42;42.19
56518;BME280;42419;48.760;2.322;2023-05-22T10:27:27;100961.75;;;21.42;42.23
56518;BME280;42419;48.760;2.322;2023-05-22T10:30:05;100963.50;;;21.43;41.97
56518;BME280;42419;48.760;2.322;2023-05-22T10:32:39;100963.47;;;21.44;42.17
56518;BME280;42419;48.760;2.322;2023-05-22T10:35:26;100963.47;;;21.44;42.05
56518;BME280;42419;48.760;2.322;2023-05-22T10:40:50;100966.09;;;21.46;42.04
56518;BME280;42419;48.760;2.322;2023-05-22T10:43:16;100956.22;;;21.46;42.09
56518;BME280;42419;48.760;2.322;2023-05-22T10:45:43;100957.09;;;21.47;42.25
56518;BME280;42419;48.760;2.322;2023-05-22T10:48:10;100960.59;;;21.49;42.16
56518;BME280;42419;48.760;2.322;2023-05-22T10:50:37;100961.38;;;21.51;42.15
56518;BME280;42419;48.760;2.322;2023-05-22T10:53:23;100951.69;;;21.48;42.03
56518;BME280;42419;48.760;2.322;2023-05-22T10:55:54;100949.75;;;21.52;42.05
56518;BME280;42419;48.760;2.322;2023-05-22T10:58:27;100948.81;;;21.53;42.11
56518;BME280;42419;48.760;2.322;2023-05-22T11:01:13;100932.94;;;21.48;41.90
56518;BME280;42419;48.760;2.322;2023-05-22T11:03:58;100950.47;;;21.56;42.23
56518;BME280;42419;48.760;2.322;2023-05-22T11:09:29;100949.53;;;21.57;42.19
56518;BME280;42419;48.760;2.322;2023-05-22T11:15:10;100945.00;;;21.59;42.00
56518;BME280;42419;48.760;2.322;2023-05-22T11:17:46;100953.03;;;21.59;42.11
56518;BME280;42419;48.760;2.322;2023-05-22T11:20:21;100943.19;;;21.59;42.16
56518;BME280;42419;48.760;2.322;2023-05-22T11:22:55;100876.88;;;21.24;42.08
56518;BME280;42419;48.760;2.322;2023-05-22T11:25:23;100940.38;;;21.62;42.02
56518;BME280;42419;48.760;2.322;2023-05-22T11:27:49;100942.03;;;21.65;41.99
56518;BME280;42419;48.760;2.322;2023-05-22T11:30:15;100936.63;;;21.66;42.04
56518;BME280;42419;48.760;2.322;2023-05-22T11:32:47;100942.81;;;21.68;42.08
56518;BME280;42419;48.760;2.322;2023-05-22T11:35:14;100937.44;;;21.68;42.19
56518;BME280;42419;48.760;2.322;2023-05-22T11:37:40;100930.19;;;21.70;41.88
56518;BME280;42419;48.760;2.322;2023-05-22T11:40:06;100939.06;;;21.72;41.97
56518;BME280;42419;48.760;2.322;2023-05-22T11:42:32;100936.38;;;21.72;42.02
56518;BME280;42419;48.760;2.322;2023-05-22T11:44:58;100934.56;;;21.73;42.01
56518;BME280;42419;48.760;2.322;2023-05-22T11:47:24;100915.38;;;21.62;42.07
56518;BME280;42419;48.760;2.322;2023-05-22T11:49:51;100941.59;;;21.75;41.94
56518;BME280;42419;48.760;2.322;2023-05-22T11:52:17;100933.50;;;21.77;41.81
56518;BME280;42419;48.760;2.322;2023-05-22T11:54:46;100934.38;;;21.77;41.79
56518;BME280;42419;48.760;2.322;2023-05-22T11:57:13;100937.06;;;21.77;41.88
56518;BME280;42419;48.760;2.322;2023-05-22T11:59:39;100923.75;;;21.74;42.04
56518;BME280;42419;48.760;2.322;2023-05-22T12:02:06;100921.03;;;21.76;42.07
56518;BME280;42419;48.760;2.322;2023-05-22T12:04:32;100927.78;;;21.84;42.10
56518;BME280;42419;48.760;2.322;2023-05-22T12:06:57;100912.25;;;21.72;41.80
56518;BME280;42419;48.760;2.322;2023-05-22T12:09:25;100908.69;;;21.72;41.87
56518;BME280;42419;48.760;2.322;2023-05-22T12:11:56;100927.78;;;21.86;41.83
56518;BME280;42419;48.760;2.322;2023-05-22T12:14:28;100924.13;;;21.87;41.86
56518;BME280;42419;48.760;2.322;2023-05-22T12:16:57;100924.19;;;21.85;41.83
56518;BME280;42419;48.760;2.322;2023-05-22T12:19:24;100918.75;;;21.87;41.96
56518;BME280;42419;48.760;2.322;2023-05-22T12:21:50;100921.44;;;21.87;41.92
56518;BME280;42419;48.760;2.322;2023-05-22T12:24:15;100926.81;;;21.87;41.91
56518;BME280;42419;48.760;2.322;2023-05-22T12:26:49;100910.72;;;21.87;42.00
56518;BME280;42419;48.760;2.322;2023-05-22T12:29:15;100917.84;;;21.88;41.55
56518;BME280;42419;48.760;2.322;2023-05-22T12:31:43;100909.03;;;21.84;41.92
56518;BME280;42419;48.760;2.322;2023-05-22T12:34:10;100918.72;;;21.88;41.82
56518;BME280;42419;48.760;2.322;2023-05-22T12:36:40;100917.06;;;21.86;41.74
56518;BME280;42419;48.760;2.322;2023-05-22T12:39:06;100882.31;;;21.63;41.54
56518;BME280;42419;48.760;2.322;2023-05-22T12:41:33;100924.06;;;21.88;41.75
56518;BME280;42419;48.760;2.322;2023-05-22T12:43:58;100927.63;;;21.89;41.88
56518;BME280;42419;48.760;2.322;2023-05-22T12:46:26;100912.78;;;21.80;41.83
56518;BME280;42419;48.760;2.322;2023-05-22T12:48:51;100921.38;;;21.88;42.02
56518;BME280;42419;48.760;2.322;2023-05-22T12:51:16;100925.00;;;21.87;41.80
56518;BME280;42419;48.760;2.322;2023-05-22T12:53:45;100928.56;;;21.88;41.80
56518;BME280;42419;48.760;2.322;2023-05-22T12:56:10;100927.69;;;21.87;42.00
56518;BME280;42419;48.760;2.322;2023-05-22T12:58:36;100911.19;;;21.76;41.92
56518;BME280;42419;48.760;2.322;2023-05-22T13:01:01;100923.19;;;21.88;41.69
56518;BME280;42419;48.760;2.322;2023-05-22T13:03:27;100925.81;;;21.89;41.68
56518;BME280;42419;48.760;2.322;2023-05-22T13:05:52;100890.69;;;21.75;42.14